Time;durP1;ratioP1;P1;durP2;ratioP2;P2;SDS_P1;SDS_P2;PMS_P1;PMS_P2;Temp;Humidity;BMP_temperature;BMP_pressure;BME280_temperature;BME280_humidity;BME280_pressure;Samples;Min_cycle;Max_cycle;Signal;HPM_P1;HPM_P2
2023/01/02 00:01:46;;;;;;;;;;;;;;;;;;5056047;28;19920;-28
2023/01/02 00:04:12;;;;;;;;;;;;;;;;;;5057368;28;19928;-29
2023/01/02 00:06:38;;;;;;;;;;;;;;;;;;5057557;28;19916;-33
2023/01/02 00:09:04;;;;;;;;;;;;;;;;;;5057382;28;19916;-25
2023/01/02 00:11:30;;;;;;;;;;;;;;;;;;5057560;28;19913;-29
2023/01/02 00:13:56;;;;;;;;;;;;;;;;;;5057430;28;19913;-28
2023/01/02 00:16:22;;;;;;;;;;;;;;;;;;5057123;28;19913;-34
2023/01/02 00:18:48;;;;;;;;;;;;;;;;;;5056186;28;20007;-30
2023/01/02 00:21:14;;;;;;;;;;;;;;;;;;5057100;28;19913;-25
2023/01/02 00:23:40;;;;;;;;;;;;;;;;;;5057024;28;19940;-29
2023/01/02 00:26:06;;;;;;;;;;;;;;;;;;5057016;28;20003;-28
2023/01/02 00:28:32;;;;;;;;;;;;;;;;;;5057204;28;19939;-31
2023/01/02 00:30:58;;;;;;;;;;;;;;;;;;5056930;28;20374;-29
2023/01/02 00:33:24;;;;;;;;;;;;;;;;;;5057080;28;19909;-30
2023/01/02 00:35:50;;;;;;;;;;;;;;;;;;5056867;28;19921;-28
2023/01/02 00:38:16;;;;;;;;;;;;;;;;;;5057030;28;19955;-29
2023/01/02 00:40:42;;;;;;;;;;;;;;;;;;5056766;28;19943;-26
2023/01/02 00:43:08;;;;;;;;;;;;;;;;;;5056835;28;19917;-29
2023/01/02 00:45:34;;;;;;;;;;;;;;;;;;5056911;28;19939;-35
2023/01/02 00:48:00;;;;;;;;;;;;;;;;;;5056539;28;19955;-29
2023/01/02 00:50:26;;;;;;;;;;;;;;;;;;5057141;28;19912;-26
2023/01/02 00:52:52;;;;;;;;;;;;;;;;;;5056467;28;19916;-26
2023/01/02 00:55:18;;;;;;;;;;;;;;;;;;5056532;28;19916;-32
2023/01/02 00:57:44;;;;;;;;;;;;;;;;;;5056410;28;19913;-25
2023/01/02 01:00:10;;;;;;;;;;;;;;;;;;5056669;28;19924;-33
2023/01/02 01:02:36;;;;;;;;;;;;;;;;;;5056278;28;19936;-32
2023/01/02 01:05:02;;;;;;;;;;;;;;;;;;5056017;28;19916;-31
2023/01/02 01:07:28;;;;;;;;;;;;;;;;;;5056412;28;19925;-29
2023/01/02 01:09:54;;;;;;;;;;;;;;;;;;5056157;28;19913;-27
2023/01/02 01:12:20;;;;;;;;;;;;;;;;;;5055812;28;19920;-31
2023/01/02 01:14:46;;;;;;;;;;;;;;;;;;5055928;28;19944;-27
2023/01/02 01:17:12;;;;;;;;;;;;;;;;;;5056326;28;19916;-28
2023/01/02 01:19:38;;;;;;;;;;;;;;;;;;5055961;28;20058;-24
2023/01/02 01:22:04;;;;;;;;;;;;;;;;;;5055813;28;19909;-27
2023/01/02 01:24:30;;;;;;;;;;;;;;;;;;5055902;28;19913;-31
2023/01/02 01:26:56;;;;;;;;;;;;;;;;;;5055847;28;19936;-34
2023/01/02 01:29:22;;;;;;;;;;;;;;;;;;5055821;28;20355;-29
2023/01/02 01:31:48;;;;;;;;;;;;;;;;;;5056015;28;19916;-26
2023/01/02 01:34:14;;;;;;;;;;;;;;;;;;5055604;28;19913;-28
2023/01/02 01:36:40;;;;;;;;;;;;;;;;;;5055651;28;19966;-28
2023/01/02 01:39:06;;;;;;;;;;;;;;;;;;5055860;28;19966;-26
2023/01/02 01:41:32;;;;;;;;;;;;;;;;;;5055789;28;19924;-30
2023/01/02 01:43:58;;;;;;;;;;;;;;;;;;5055723;28;19920;-30
2023/01/02 01:46:24;;;;;;;;;;;;;;;;;;5055450;28;19913;-24
2023/01/02 01:48:50;;;;;;;;;;;;;;;;;;5055391;28;19917;-29
2023/01/02 01:51:16;;;;;;;;;;;;;;;;;;5055328;28;19920;-26
2023/01/02 01:53:42;;;;;;;;;;;;;;;;;;5055288;28;19909;-28
2023/01/02 01:56:08;;;;;;;;;;;;;;;;;;5055836;28;19936;-31
2023/01/02 01:58:34;;;;;;;;;;;;;;;;;;5055215;28;19937;-30
2023/01/02 02:01:00;;;;;;;;;;;;;;;;;;5055247;28;19916;-29
2023/01/02 02:03:26;;;;;;;;;;;;;;;;;;5055254;28;20236;-25
2023/01/02 02:05:52;;;;;;;;;;;;;;;;;;5054823;28;19970;-28
2023/01/02 02:08:18;;;;;;;;;;;;;;;;;;5054076;28;19928;-26
2023/01/02 02:10:45;;;;;;;;;;;;;;;;;;5055395;28;19919;-29
2023/01/02 02:13:11;;;;;;;;;;;;;;;;;;5055297;28;19912;-28
2023/01/02 02:15:37;;;;;;;;;;;;;;;;;;5055034;28;19986;-28
2023/01/02 02:18:03;;;;;;;;;;;;;;;;;;5055234;28;19923;-31
2023/01/02 02:20:30;;;;;;;;;;;;;;;;;;5055182;28;19909;-26
2023/01/02 02:22:56;;;;;;;;;;;;;;;;;;5054819;28;20007;-27
2023/01/02 02:25:22;;;;;;;;;;;;;;;;;;5054049;28;19913;-30
2023/01/02 02:27:48;;;;;;;;;;;;;;;;;;5054764;28;20263;-25
2023/01/02 02:30:14;;;;;;;;;;;;;;;;;;5054825;28;20003;-24
2023/01/02 02:32:40;;;;;;;;;;;;;;;;;;5054960;28;19924;-29
2023/01/02 02:35:06;;;;;;;;;;;;;;;;;;5054777;28;20256;-28
2023/01/02 02:37:32;;;;;;;;;;;;;;;;;;5054690;28;19931;-26
2023/01/02 02:39:58;;;;;;;;;;;;;;;;;;5055016;28;19917;-28
2023/01/02 02:42:24;;;;;;;;;;;;;;;;;;5054574;28;20332;-26
2023/01/02 02:44:52;;;;;;;;;;;;;;;;;;5054761;28;19912;-26
2023/01/02 02:47:18;;;;;;;;;;;;;;;;;;5055631;28;20279;-30
2023/01/02 02:49:44;;;;;;;;;;;;;;;;;;5054681;28;19958;-28
2023/01/02 02:52:10;;;;;;;;;;;;;;;;;;5054544;28;19917;-32
2023/01/02 02:54:36;;;;;;;;;;;;;;;;;;5054619;28;20254;-29
2023/01/02 02:57:02;;;;;;;;;;;;;;;;;;5054810;28;19995;-28
2023/01/02 02:59:28;;;;;;;;;;;;;;;;;;5054493;28;19963;-29
2023/01/02 03:01:54;;;;;;;;;;;;;;;;;;5055201;28;20362;-28
2023/01/02 03:04:20;;;;;;;;;;;;;;;;;;5054350;28;19921;-25
2023/01/02 03:06:46;;;;;;;;;;;;;;;;;;5054329;28;20347;-28
2023/01/02 03:09:12;;;;;;;;;;;;;;;;;;5054709;28;19962;-29
2023/01/02 03:11:38;;;;;;;;;;;;;;;;;;5054341;28;19917;-27
2023/01/02 03:14:04;;;;;;;;;;;;;;;;;;5054311;28;19931;-29
2023/01/02 03:16:32;;;;;;;;;;;;;;;;;;5054611;28;19913;-31
2023/01/02 03:18:58;;;;;;;;;;;;;;;;;;5054642;28;20007;-27
2023/01/02 03:21:24;;;;;;;;;;;;;;;;;;5054342;28;19928;-31
2023/01/02 03:23:50;;;;;;;;;;;;;;;;;;5054563;28;20247;-25
2023/01/02 03:26:16;;;;;;;;;;;;;;;;;;5054827;28;19924;-27
2023/01/02 03:28:42;;;;;;;;;;;;;;;;;;5054247;28;19920;-28
2023/01/02 03:31:08;;;;;;;;;;;;;;;;;;5054476;28;19917;-28
2023/01/02 03:33:34;;;;;;;;;;;;;;;;;;5054466;28;20247;-29
2023/01/02 03:36:00;;;;;;;;;;;;;;;;;;5055191;28;19920;-29
2023/01/02 03:38:27;;;;;;;;;;;;;;;;;;5057906;28;19944;-29
2023/01/02 03:40:53;;;;;;;;;;;;;;;;;;5056873;28;19913;-30
2023/01/02 03:43:19;;;;;;;;;;;;;;;;;;5057750;28;20011;-28
2023/01/02 03:45:45;;;;;;;;;;;;;;;;;;5057847;28;19909;-32
2023/01/02 03:48:11;;;;;;;;;;;;;;;;;;5057694;28;19916;-29
2023/01/02 03:50:37;;;;;;;;;;;;;;;;;;5057689;28;19913;-28
2023/01/02 03:53:03;;;;;;;;;;;;;;;;;;5057588;28;19908;-29
2023/01/02 03:55:29;;;;;;;;;;;;;;;;;;5057898;28;19913;-28
2023/01/02 03:57:55;;;;;;;;;;;;;;;;;;5057866;28;20003;-27
2023/01/02 04:00:21;;;;;;;;;;;;;;;;;;5057761;28;19952;-27
2023/01/02 04:02:47;;;;;;;;;;;;;;;;;;5057391;28;20066;-29
2023/01/02 04:05:13;;;;;;;;;;;;;;;;;;5057261;28;20058;-29
2023/01/02 04:07:39;;;;;;;;;;;;;;;;;;5057302;28;19932;-28
2023/01/02 04:10:05;;;;;;;;;;;;;;;;;;5057614;28;19913;-29
2023/01/02 04:12:31;;;;;;;;;;;;;;;;;;5057264;28;19915;-27
2023/01/02 04:14:57;;;;;;;;;;;;;;;;;;5057266;28;19913;-30
2023/01/02 04:17:23;;;;;;;;;;;;;;;;;;5057499;28;19913;-31
2023/01/02 04:19:49;;;;;;;;;;;;;;;;;;5057049;28;20263;-31
2023/01/02 04:22:15;;;;;;;;;;;;;;;;;;5057322;28;19909;-31
2023/01/02 04:24:41;;;;;;;;;;;;;;;;;;5057035;28;20339;-28
2023/01/02 04:27:07;;;;;;;;;;;;;;;;;;5056855;28;19923;-29
2023/01/02 04:29:33;;;;;;;;;;;;;;;;;;5056996;28;19909;-29
2023/01/02 04:31:59;;;;;;;;;;;;;;;;;;5057074;28;19912;-28
2023/01/02 04:34:25;;;;;;;;;;;;;;;;;;5056910;28;19920;-31
2023/01/02 04:36:51;;;;;;;;;;;;;;;;;;5056662;28;19914;-26
2023/01/02 04:39:17;;;;;;;;;;;;;;;;;;5056735;28;20046;-27
2023/01/02 04:41:43;;;;;;;;;;;;;;;;;;5056919;28;19966;-29
2023/01/02 04:44:09;;;;;;;;;;;;;;;;;;5056789;28;19990;-26
2023/01/02 04:46:35;;;;;;;;;;;;;;;;;;5056544;28;19912;-28
2023/01/02 04:49:01;;;;;;;;;;;;;;;;;;5055907;28;19913;-29
2023/01/02 04:51:27;;;;;;;;;;;;;;;;;;5056669;28;19921;-27
2023/01/02 04:53:53;;;;;;;;;;;;;;;;;;5056362;28;20225;-26
2023/01/02 04:56:19;;;;;;;;;;;;;;;;;;5056296;28;19912;-32
2023/01/02 04:58:45;;;;;;;;;;;;;;;;;;5056316;28;19915;-32
2023/01/02 05:03:54;;;;;;;;;;;;;;;;;;5145724;22;19925;-24
2023/01/02 05:06:20;;;;;;;;;;;;;;;;;;5056863;28;19913;-24
2023/01/02 05:08:46;;;;;;;;;;;;;;;;;;5055084;28;19913;-25
2023/01/02 05:11:12;;;;;;;;;;;;;;;;;;5056401;28;20061;-23
2023/01/02 05:13:38;;;;;;;;;;;;;;;;;;5055803;28;19909;-24
2023/01/02 05:16:04;;;;;;;;;;;;;;;;;;5056084;28;20258;-23
2023/01/02 05:18:30;;;;;;;;;;;;;;;;;;5055428;28;20355;-24
2023/01/02 05:20:56;;;;;;;;;;;;;;;;;;5054491;28;19959;-23
2023/01/02 05:26:07;;;;;;;;;;;;;;;;;;5056270;28;19923;-23
2023/01/02 05:28:33;;;;;;;;;;;;;;;;;;5055452;28;19917;-23
2023/01/02 05:30:59;;;;;;;;;;;;;;;;;;5055617;28;19913;-23
2023/01/02 05:33:25;;;;;;;;;;;;;;;;;;5055464;28;19977;-24
2023/01/02 05:35:51;;;;;;;;;;;;;;;;;;5055126;28;19920;-24
2023/01/02 05:38:17;;;;;;;;;;;;;;;;;;5055200;28;19913;-24
2023/01/02 05:40:43;;;;;;;;;;;;;;;;;;5054101;28;19994;-24
2023/01/02 05:43:09;;;;;;;;;;;;;;;;;;5054978;28;19913;-24
2023/01/02 05:45:35;;;;;;;;;;;;;;;;;;5053903;28;19913;-24
2023/01/02 05:48:01;;;;;;;;;;;;;;;;;;5054696;28;19912;-23
2023/01/02 05:50:27;;;;;;;;;;;;;;;;;;5055175;28;19912;-23
2023/01/02 05:52:53;;;;;;;;;;;;;;;;;;5053827;28;19920;-24
2023/01/02 05:55:19;;;;;;;;;;;;;;;;;;5054828;28;20356;-24
2023/01/02 05:57:45;;;;;;;;;;;;;;;;;;5054804;28;20016;-23
2023/01/02 06:00:11;;;;;;;;;;;;;;;;;;5054727;28;20270;-24
2023/01/02 06:02:37;;;;;;;;;;;;;;;;;;5054407;28;19917;-24
2023/01/02 06:05:03;;;;;;;;;;;;;;;;;;5053113;28;20474;-24
2023/01/02 06:07:29;;;;;;;;;;;;;;;;;;5054151;28;19924;-24
2023/01/02 06:09:55;;;;;;;;;;;;;;;;;;5053289;28;19996;-23
2023/01/02 06:12:21;;;;;;;;;;;;;;;;;;5054046;28;19959;-24
2023/01/02 06:14:47;;;;;;;;;;;;;;;;;;5054056;28;19992;-24
2023/01/02 06:17:13;;;;;;;;;;;;;;;;;;5054327;28;19913;-24
2023/01/02 06:19:39;;;;;;;;;;;;;;;;;;5053905;28;19937;-24
2023/01/02 06:22:05;;;;;;;;;;;;;;;;;;5053769;28;19956;-24
2023/01/02 06:24:31;;;;;;;;;;;;;;;;;;5054016;28;20023;-24
2023/01/02 06:26:57;;;;;;;;;;;;;;;;;;5053738;28;19913;-24
2023/01/02 06:29:23;;;;;;;;;;;;;;;;;;5053592;28;19909;-25
2023/01/02 06:31:49;;;;;;;;;;;;;;;;;;5053397;28;19966;-24
2023/01/02 06:34:16;;;;;;;;;;;;;;;;;;5053563;28;19909;-24
2023/01/02 06:36:42;;;;;;;;;;;;;;;;;;5053573;28;20248;-25
2023/01/02 06:39:08;;;;;;;;;;;;;;;;;;5053361;28;19959;-24
2023/01/02 06:41:34;;;;;;;;;;;;;;;;;;5053340;28;20199;-25
2023/01/02 06:44:00;;;;;;;;;;;;;;;;;;5053104;28;19909;-24
2023/01/02 06:46:26;;;;;;;;;;;;;;;;;;5053178;28;19955;-25
2023/01/02 06:48:52;;;;;;;;;;;;;;;;;;5053292;28;20019;-25
2023/01/02 06:51:18;;;;;;;;;;;;;;;;;;5053137;28;19924;-24
2023/01/02 06:53:44;;;;;;;;;;;;;;;;;;5053228;28;19927;-25
2023/01/02 06:56:10;;;;;;;;;;;;;;;;;;5053234;28;20257;-24
2023/01/02 06:58:36;;;;;;;;;;;;;;;;;;5052443;28;19912;-24
2023/01/02 07:01:02;;;;;;;;;;;;;;;;;;5052989;28;20007;-25
2023/01/02 07:03:28;;;;;;;;;;;;;;;;;;4983167;28;1985076;-24
2023/01/02 07:05:54;;;;;;;;;;;;;;;;;;5054022;28;19913;-24
2023/01/02 07:08:20;;;;;;;;;;;;;;;;;;5053037;28;19913;-24
2023/01/02 07:10:46;;;;;;;;;;;;;;;;;;5054445;28;20046;-24
2023/01/02 07:13:12;;;;;;;;;;;;;;;;;;5057664;28;19963;-25
2023/01/02 07:15:38;;;;;;;;;;;;;;;;;;5057462;28;20003;-25
2023/01/02 07:18:04;;;;;;;;;;;;;;;;;;5056242;28;19920;-24
2023/01/02 07:20:30;;;;;;;;;;;;;;;;;;5056504;28;19953;-24
2023/01/02 07:22:56;;;;;;;;;;;;;;;;;;5057333;28;19996;-26
2023/01/02 07:25:22;;;;;;;;;;;;;;;;;;5057394;28;20351;-24
2023/01/02 07:27:48;;;;;;;;;;;;;;;;;;5057149;28;19916;-24
2023/01/02 07:30:14;;;;;;;;;;;;;;;;;;5056071;28;19913;-24
2023/01/02 07:32:40;;;;;;;;;;;;;;;;;;5057338;28;20339;-24
2023/01/02 07:35:06;;;;;;;;;;;;;;;;;;5057208;28;19913;-24
2023/01/02 07:37:32;;;;;;;;;;;;;;;;;;5057763;28;19928;-24
2023/01/02 07:39:58;;;;;;;;;;;;;;;;;;5056397;28;19913;-24
2023/01/02 07:42:24;;;;;;;;;;;;;;;;;;5057208;28;20343;-24
2023/01/02 07:44:50;;;;;;;;;;;;;;;;;;5056187;28;19913;-24
2023/01/02 07:47:16;;;;;;;;;;;;;;;;;;5057252;28;19916;-24
2023/01/02 07:49:42;;;;;;;;;;;;;;;;;;5057422;28;19913;-24
2023/01/02 07:52:08;;;;;;;;;;;;;;;;;;5057448;28;19913;-24
2023/01/02 07:54:34;;;;;;;;;;;;;;;;;;5057370;28;19913;-24
2023/01/02 07:57:00;;;;;;;;;;;;;;;;;;5057599;28;19913;-24
2023/01/02 07:59:26;;;;;;;;;;;;;;;;;;5056175;28;19909;-24
2023/01/02 08:01:52;;;;;;;;;;;;;;;;;;5057022;28;19928;-24
2023/01/02 08:04:18;;;;;;;;;;;;;;;;;;5057189;28;19921;-25
2023/01/02 08:06:44;;;;;;;;;;;;;;;;;;5057446;28;19913;-24
2023/01/02 08:09:10;;;;;;;;;;;;;;;;;;5056883;28;19913;-24
2023/01/02 08:11:36;;;;;;;;;;;;;;;;;;5057549;28;19913;-24
2023/01/02 08:14:02;;;;;;;;;;;;;;;;;;5057083;28;19919;-26
2023/01/02 08:16:28;;;;;;;;;;;;;;;;;;5057405;28;19919;-25
2023/01/02 08:18:54;;;;;;;;;;;;;;;;;;5057441;28;19941;-25
2023/01/02 08:21:20;;;;;;;;;;;;;;;;;;5056796;28;19913;-25
2023/01/02 08:23:46;;;;;;;;;;;;;;;;;;5055591;28;19919;-25
2023/01/02 08:26:12;;;;;;;;;;;;;;;;;;5056657;28;19932;-25
2023/01/02 08:28:38;;;;;;;;;;;;;;;;;;5056881;28;19913;-25
2023/01/02 08:31:04;;;;;;;;;;;;;;;;;;5056672;28;20322;-25
2023/01/02 08:33:30;;;;;;;;;;;;;;;;;;5056598;28;19916;-25
2023/01/02 08:35:56;;;;;;;;;;;;;;;;;;5056574;28;19948;-26
2023/01/02 08:38:22;;;;;;;;;;;;;;;;;;5056843;28;20274;-25
2023/01/02 08:40:48;;;;;;;;;;;;;;;;;;5056795;28;19920;-25
2023/01/02 08:43:14;;;;;;;;;;;;;;;;;;5056332;28;19924;-25
2023/01/02 08:45:40;;;;;;;;;;;;;;;;;;5056535;28;20003;-25
2023/01/02 08:48:06;;;;;;;;;;;;;;;;;;5055991;28;19927;-25
2023/01/02 08:50:32;;;;;;;;;;;;;;;;;;5056008;28;19921;-25
2023/01/02 08:52:58;;;;;;;;;;;;;;;;;;5056251;28;19913;-25
2023/01/02 08:55:23;;;;;;;;;;;;;;;;;;5056104;28;19986;-27
2023/01/02 08:57:49;;;;;;;;;;;;;;;;;;5056374;28;19944;-25
2023/01/02 09:00:15;;;;;;;;;;;;;;;;;;5055427;28;19912;-25
2023/01/02 09:02:41;;;;;;;;;;;;;;;;;;5055869;28;19969;-25
2023/01/02 09:05:07;;;;;;;;;;;;;;;;;;5056141;28;19922;-25
2023/01/02 09:07:33;;;;;;;;;;;;;;;;;;5056028;28;19967;-25
2023/01/02 09:09:59;;;;;;;;;;;;;;;;;;5056289;28;19966;-25
2023/01/02 09:12:25;;;;;;;;;;;;;;;;;;5055915;28;19920;-25
2023/01/02 09:14:51;;;;;;;;;;;;;;;;;;5055992;28;19982;-25
2023/01/02 09:17:17;;;;;;;;;;;;;;;;;;5056581;28;19970;-25
2023/01/02 09:19:44;;;;;;;;;;;;;;;;;;5055606;28;19913;-25
2023/01/02 09:22:10;;;;;;;;;;;;;;;;;;5055551;28;19909;-26
2023/01/02 09:24:36;;;;;;;;;;;;;;;;;;5055979;28;19919;-25
2023/01/02 09:27:02;;;;;;;;;;;;;;;;;;5055703;28;20082;-25
2023/01/02 09:29:28;;;;;;;;;;;;;;;;;;5054572;28;19920;-25
2023/01/02 09:31:54;;;;;;;;;;;;;;;;;;5054177;28;19924;-25
2023/01/02 09:34:20;;;;;;;;;;;;;;;;;;5054864;28;19955;-25
2023/01/02 09:36:46;;;;;;;;;;;;;;;;;;5055762;28;20255;-25
2023/01/02 09:39:12;;;;;;;;;;;;;;;;;;5055872;28;19917;-25
2023/01/02 09:41:38;;;;;;;;;;;;;;;;;;5055264;28;19923;-25
2023/01/02 09:44:04;;;;;;;;;;;;;;;;;;5054985;28;19923;-24
2023/01/02 09:46:30;;;;;;;;;;;;;;;;;;5054377;28;19913;-24
2023/01/02 09:48:56;;;;;;;;;;;;;;;;;;5054004;28;19924;-24
2023/01/02 09:51:22;;;;;;;;;;;;;;;;;;5053952;28;19979;-24
2023/01/02 09:53:48;;;;;;;;;;;;;;;;;;5053933;28;19917;-24
2023/01/02 09:56:14;;;;;;;;;;;;;;;;;;5054066;28;19912;-24
2023/01/02 09:58:40;;;;;;;;;;;;;;;;;;5054238;28;19909;-24
2023/01/02 10:01:06;;;;;;;;;;;;;;;;;;5052749;28;19993;-24
2023/01/02 10:03:32;;;;;;;;;;;;;;;;;;5053471;28;19924;-25
2023/01/02 10:05:58;;;;;;;;;;;;;;;;;;5053735;28;19924;-24
2023/01/02 10:08:24;;;;;;;;;;;;;;;;;;5053644;28;19913;-24
2023/01/02 10:10:50;;;;;;;;;;;;;;;;;;5054029;28;20348;-24
2023/01/02 10:13:16;;;;;;;;;;;;;;;;;;5053581;28;19912;-25
2023/01/02 10:15:42;;;;;;;;;;;;;;;;;;5053777;28;19913;-24
2023/01/02 10:18:10;;;;;;;;;;;;;;;;;;5053710;28;19913;-25
2023/01/02 10:20:36;;;;;;;;;;;;;;;;;;5053447;28;20377;-24
2023/01/02 10:23:02;;;;;;;;;;;;;;;;;;5053947;28;19940;-25
2023/01/02 10:25:28;;;;;;;;;;;;;;;;;;5054151;28;19913;-24
2023/01/02 10:27:54;;;;;;;;;;;;;;;;;;5054372;28;19919;-25
2023/01/02 10:30:20;;;;;;;;;;;;;;;;;;5054592;28;19913;-25
2023/01/02 10:32:46;;;;;;;;;;;;;;;;;;5054192;28;19916;-24
2023/01/02 10:35:12;;;;;;;;;;;;;;;;;;5055100;28;19920;-24
2023/01/02 10:37:38;;;;;;;;;;;;;;;;;;5054398;28;20065;-24
2023/01/02 10:40:04;;;;;;;;;;;;;;;;;;5054404;28;20413;-24
2023/01/02 10:42:30;;;;;;;;;;;;;;;;;;5054455;28;19909;-25
2023/01/02 10:44:56;;;;;;;;;;;;;;;;;;5054375;28;20366;-24
2023/01/02 10:47:22;;;;;;;;;;;;;;;;;;5053714;28;20298;-24
2023/01/02 10:49:48;;;;;;;;;;;;;;;;;;5054307;28;19916;-24
2023/01/02 10:52:14;;;;;;;;;;;;;;;;;;5053077;28;19924;-24
2023/01/02 10:54:40;;;;;;;;;;;;;;;;;;5053993;28;19913;-24
2023/01/02 10:57:06;;;;;;;;;;;;;;;;;;5054124;28;19913;-24
2023/01/02 10:59:33;;;;;;;;;;;;;;;;;;5053969;28;20271;-28
2023/01/02 11:01:59;;;;;;;;;;;;;;;;;;5054501;28;19913;-23
2023/01/02 11:04:25;;;;;;;;;;;;;;;;;;5053906;28;19925;-24
2023/01/02 11:06:51;;;;;;;;;;;;;;;;;;5054490;28;20368;-24
2023/01/02 11:09:17;;;;;;;;;;;;;;;;;;5054229;28;19996;-24
2023/01/02 11:11:43;;;;;;;;;;;;;;;;;;5054046;28;19956;-24
2023/01/02 11:14:10;;;;;;;;;;;;;;;;;;5053860;28;19912;-24
2023/01/02 11:16:36;;;;;;;;;;;;;;;;;;5054341;28;19913;-24
2023/01/02 11:19:06;;;;;;;;;;;;;;;;;;5053077;28;19927;-24
2023/01/02 11:21:32;;;;;;;;;;;;;;;;;;5053876;28;20046;-25
2023/01/02 11:23:58;;;;;;;;;;;;;;;;;;5053734;28;19912;-25
2023/01/02 11:26:24;;;;;;;;;;;;;;;;;;5053762;28;19983;-25
2023/01/02 11:28:50;;;;;;;;;;;;;;;;;;5053704;28;20503;-25
2023/01/02 11:31:16;;;;;;;;;;;;;;;;;;5053622;28;20229;-25
2023/01/02 11:33:42;;;;;;;;;;;;;;;;;;5053576;28;20106;-25
2023/01/02 11:36:08;;;;;;;;;;;;;;;;;;5052513;28;20387;-25
2023/01/02 11:38:34;;;;;;;;;;;;;;;;;;5053672;28;20343;-25
2023/01/02 11:41:00;;;;;;;;;;;;;;;;;;5054157;28;19913;-25
2023/01/02 11:46:10;;;;;;;;;;;;;;;;;;5053659;28;19923;-25
2023/01/02 11:48:36;;;;;;;;;;;;;;;;;;5053548;28;20317;-24
2023/01/02 11:51:02;;;;;;;;;;;;;;;;;;5052652;28;20313;-25
2023/01/02 11:53:28;;;;;;;;;;;;;;;;;;5053990;28;20283;-25
2023/01/02 11:55:54;;;;;;;;;;;;;;;;;;5053570;28;19927;-25
2023/01/02 11:58:20;;;;;;;;;;;;;;;;;;5056323;28;19986;-25
2023/01/02 12:00:46;;;;;;;;;;;;;;;;;;5056820;28;19920;-25
2023/01/02 12:03:12;;;;;;;;;;;;;;;;;;5056144;28;19951;-25
2023/01/02 12:05:38;;;;;;;;;;;;;;;;;;5055286;28;19913;-25
2023/01/02 12:08:04;;;;;;;;;;;;;;;;;;5056577;28;19913;-25
2023/01/02 12:10:30;;;;;;;;;;;;;;;;;;5056190;28;19936;-25
2023/01/02 12:12:56;;;;;;;;;;;;;;;;;;5056331;28;20255;-25
2023/01/02 12:15:22;;;;;;;;;;;;;;;;;;5056398;28;19917;-25
2023/01/02 12:17:50;;;;;;;;;;;;;;;;;;5056149;28;19909;-25
2023/01/02 12:20:16;;;;;;;;;;;;;;;;;;5056376;28;19913;-25
2023/01/02 12:22:42;;;;;;;;;;;;;;;;;;5056319;28;19998;-25
2023/01/02 12:25:08;;;;;;;;;;;;;;;;;;5055757;28;19920;-25
2023/01/02 12:27:34;;;;;;;;;;;;;;;;;;5055871;28;19920;-25
2023/01/02 12:30:00;;;;;;;;;;;;;;;;;;5056882;28;19913;-25
2023/01/02 12:32:26;;;;;;;;;;;;;;;;;;5056618;28;19967;-25
2023/01/02 12:34:52;;;;;;;;;;;;;;;;;;5056612;28;19917;-25
2023/01/02 12:37:18;;;;;;;;;;;;;;;;;;5056563;28;19973;-25
2023/01/02 12:39:44;;;;;;;;;;;;;;;;;;5056459;28;19920;-25
2023/01/02 12:42:10;;;;;;;;;;;;;;;;;;5056271;28;19909;-25
2023/01/02 12:44:36;;;;;;;;;;;;;;;;;;5056381;28;20051;-24
2023/01/02 12:47:02;;;;;;;;;;;;;;;;;;5056349;28;19960;-23
2023/01/02 12:49:28;;;;;;;;;;;;;;;;;;5055908;28;20011;-24
2023/01/02 12:51:54;;;;;;;;;;;;;;;;;;5056339;28;20412;-23
2023/01/02 12:54:20;;;;;;;;;;;;;;;;;;5056244;28;19909;-24
2023/01/02 12:56:46;;;;;;;;;;;;;;;;;;5056201;28;19978;-23
2023/01/02 12:59:12;;;;;;;;;;;;;;;;;;5056103;28;19927;-24
2023/01/02 13:01:38;;;;;;;;;;;;;;;;;;5056430;28;19995;-24
2023/01/02 13:04:04;;;;;;;;;;;;;;;;;;5055883;28;19948;-24
2023/01/02 13:06:30;;;;;;;;;;;;;;;;;;5055017;28;20000;-24
2023/01/02 13:08:56;;;;;;;;;;;;;;;;;;5054357;28;20026;-34
2023/01/02 13:11:22;;;;;;;;;;;;;;;;;;5056243;28;19920;-24
2023/01/02 13:13:48;;;;;;;;;;;;;;;;;;5056000;28;19995;-24
2023/01/02 13:16:14;;;;;;;;;;;;;;;;;;5055886;28;20224;-24
2023/01/02 13:18:40;;;;;;;;;;;;;;;;;;5054973;28;19928;-23
2023/01/02 13:21:06;;;;;;;;;;;;;;;;;;5055661;28;20279;-24
2023/01/02 13:23:32;;;;;;;;;;;;;;;;;;5055608;28;19913;-24
2023/01/02 13:25:58;;;;;;;;;;;;;;;;;;5055469;28;19909;-24
2023/01/02 13:28:24;;;;;;;;;;;;;;;;;;5055170;28;19924;-24
2023/01/02 13:30:50;;;;;;;;;;;;;;;;;;5055820;28;20201;-24
2023/01/02 13:33:16;;;;;;;;;;;;;;;;;;5055332;28;19920;-25
2023/01/02 13:35:42;;;;;;;;;;;;;;;;;;5055260;28;19909;-24
2023/01/02 13:38:08;;;;;;;;;;;;;;;;;;5055719;28;19932;-24
2023/01/02 13:40:34;;;;;;;;;;;;;;;;;;5054249;28;19913;-25
2023/01/02 13:43:02;;;;;;;;;;;;;;;;;;5053976;28;20023;-24
2023/01/02 13:45:33;;;;;;;;;;;;;;;;;;5055164;28;19913;-24
2023/01/02 13:47:59;;;;;;;;;;;;;;;;;;5055050;28;19919;-23
2023/01/02 13:50:25;;;;;;;;;;;;;;;;;;5055058;28;19947;-24
2023/01/02 13:52:51;;;;;;;;;;;;;;;;;;5054929;28;20236;-24
2023/01/02 13:55:19;;;;;;;;;;;;;;;;;;5054798;28;19913;-24
2023/01/02 13:57:45;;;;;;;;;;;;;;;;;;5054746;28;19909;-24
2023/01/02 14:00:11;;;;;;;;;;;;;;;;;;5054620;28;19939;-24
2023/01/02 14:02:38;;;;;;;;;;;;;;;;;;5053231;28;19917;-25
2023/01/02 14:05:04;;;;;;;;;;;;;;;;;;5055067;28;19917;-24
2023/01/02 14:07:31;;;;;;;;;;;;;;;;;;5054768;28;20305;-25
2023/01/02 14:09:57;;;;;;;;;;;;;;;;;;5054942;28;20354;-25
2023/01/02 14:12:23;;;;;;;;;;;;;;;;;;5054762;28;19920;-24
2023/01/02 14:14:49;;;;;;;;;;;;;;;;;;5053706;28;19912;-24
2023/01/02 14:17:15;;;;;;;;;;;;;;;;;;5054955;28;20255;-25
2023/01/02 14:19:42;;;;;;;;;;;;;;;;;;5054233;28;19964;-25
2023/01/02 14:22:08;;;;;;;;;;;;;;;;;;5053595;28;19919;-24
2023/01/02 14:24:34;;;;;;;;;;;;;;;;;;5054473;28;20331;-24
2023/01/02 14:27:00;;;;;;;;;;;;;;;;;;5054721;28;19959;-25
2023/01/02 14:29:26;;;;;;;;;;;;;;;;;;5054713;28;19924;-24
2023/01/02 14:31:52;;;;;;;;;;;;;;;;;;5054361;28;19925;-25
2023/01/02 14:34:18;;;;;;;;;;;;;;;;;;5054715;28;19909;-25
2023/01/02 14:36:44;;;;;;;;;;;;;;;;;;5053396;28;20361;-25
2023/01/02 14:39:10;;;;;;;;;;;;;;;;;;5054316;28;19909;-25
2023/01/02 14:44:21;;;;;;;;;;;;;;;;;;5054263;28;20405;-24
2023/01/02 14:46:47;;;;;;;;;;;;;;;;;;5054150;28;19917;-24
2023/01/02 14:49:13;;;;;;;;;;;;;;;;;;5054218;28;19966;-24
2023/01/02 14:51:39;;;;;;;;;;;;;;;;;;5054307;28;19913;-24
2023/01/02 14:54:07;;;;;;;;;;;;;;;;;;5054006;28;19913;-25
2023/01/02 14:56:33;;;;;;;;;;;;;;;;;;5054181;28;19913;-25
2023/01/02 14:58:59;;;;;;;;;;;;;;;;;;5054333;28;19912;-25
2023/01/02 15:01:25;;;;;;;;;;;;;;;;;;5054260;28;19939;-26
2023/01/02 15:03:51;;;;;;;;;;;;;;;;;;5053913;28;20343;-25
2023/01/02 15:06:17;;;;;;;;;;;;;;;;;;5054236;28;19919;-25
2023/01/02 15:08:43;;;;;;;;;;;;;;;;;;5053006;28;19921;-25
2023/01/02 15:13:54;;;;;;;;;;;;;;;;;;5054116;28;20054;-25
2023/01/02 15:16:20;;;;;;;;;;;;;;;;;;5054189;28;19978;-25
2023/01/02 15:18:46;;;;;;;;;;;;;;;;;;5054123;28;19913;-25
2023/01/02 15:21:12;;;;;;;;;;;;;;;;;;5054103;28;19998;-25
2023/01/02 15:23:38;;;;;;;;;;;;;;;;;;5054058;28;19924;-25
2023/01/02 15:26:04;;;;;;;;;;;;;;;;;;5054078;28;19912;-25
2023/01/02 15:28:30;;;;;;;;;;;;;;;;;;5052717;28;19917;-25
2023/01/02 15:30:56;;;;;;;;;;;;;;;;;;5053748;28;20003;-25
2023/01/02 15:33:22;;;;;;;;;;;;;;;;;;5056648;28;19913;-25
2023/01/02 15:35:48;;;;;;;;;;;;;;;;;;5056327;28;20336;-25
2023/01/02 15:38:15;;;;;;;;;;;;;;;;;;5056272;28;19971;-25
2023/01/02 15:40:41;;;;;;;;;;;;;;;;;;5057375;28;19940;-26
2023/01/02 15:45:52;;;;;;;;;;;;;;;;;;5057194;28;19928;-25
2023/01/02 15:48:18;;;;;;;;;;;;;;;;;;5057190;28;19913;-25
2023/01/02 15:50:44;;;;;;;;;;;;;;;;;;5057376;28;19921;-25
2023/01/02 15:53:10;;;;;;;;;;;;;;;;;;5057212;28;19931;-25
2023/01/02 15:55:36;;;;;;;;;;;;;;;;;;5057204;28;20003;-25
2023/01/02 15:58:02;;;;;;;;;;;;;;;;;;5057121;28;20330;-25
2023/01/02 16:00:28;;;;;;;;;;;;;;;;;;5056167;28;19923;-25
2023/01/02 16:02:54;;;;;;;;;;;;;;;;;;5056949;28;19917;-25
2023/01/02 16:05:20;;;;;;;;;;;;;;;;;;5057079;28;19913;-25
2023/01/02 16:07:46;;;;;;;;;;;;;;;;;;5056982;28;19959;-25
2023/01/02 16:10:12;;;;;;;;;;;;;;;;;;5056664;28;19932;-25
2023/01/02 16:12:38;;;;;;;;;;;;;;;;;;5056096;28;19913;-25
2023/01/02 16:15:04;;;;;;;;;;;;;;;;;;5056198;28;19919;-25
2023/01/02 16:17:30;;;;;;;;;;;;;;;;;;5056064;28;19913;-25
2023/01/02 16:19:57;;;;;;;;;;;;;;;;;;5056165;28;19924;-25
2023/01/02 16:22:23;;;;;;;;;;;;;;;;;;5056084;28;20405;-25
2023/01/02 16:24:49;;;;;;;;;;;;;;;;;;5055116;28;19917;-25
2023/01/02 16:27:15;;;;;;;;;;;;;;;;;;5056083;28;19920;-25
2023/01/02 16:29:41;;;;;;;;;;;;;;;;;;5054858;28;19944;-25
2023/01/02 16:32:07;;;;;;;;;;;;;;;;;;5055874;28;19920;-25
2023/01/02 16:34:37;;;;;;;;;;;;;;;;;;5055892;28;19924;-25
2023/01/02 16:37:03;;;;;;;;;;;;;;;;;;5055913;28;19920;-25
2023/01/02 16:39:28;;;;;;;;;;;;;;;;;;5055702;28;20343;-25
2023/01/02 16:42:33;;;;;;;;;;;;;;;;;;5056119;28;19998;-25
2023/01/02 16:44:40;;;;;;;;;;;;;;;;;;5055381;28;20245;-24
2023/01/02 16:47:06;;;;;;;;;;;;;;;;;;5055236;28;19917;-25
2023/01/02 16:49:32;;;;;;;;;;;;;;;;;;5055778;28;20340;-25
2023/01/02 16:51:59;;;;;;;;;;;;;;;;;;5056090;28;20008;-25
2023/01/02 16:54:25;;;;;;;;;;;;;;;;;;5056110;28;20344;-25